Copper Mountain, CO

12:47 PM MDT on September 18, 2019 (GMT -0600)
Copper Mountain

Weather History for KCCU - August, 2019

Change the Weather History Date:

Thursday, August 22, 2019

  Actual Average Record
Temperature  
Mean Temperature 56 °F -  
Max Temperature 64 °F - 68 °F (2011)
Min Temperature 48 °F - 39 °F (2002)
Degree Days  
Heating Degree Days 9    
Month to date heating degree days 158  
Cooling Degree Days 0    
Month to date cooling degree days 0  
Growing Degree Days 6 (Base 50)    
Moisture  
Dew Point 30 °F    
Average Humidity 43    
Maximum Humidity 61    
Minimum Humidity 24    
Precipitation  
Precipitation 0.00 in - 0.74 in (2013)
Snow  
Snow 0.00 in - - ()
Snow Depth 0.00 in    
Sea Level Pressure  
Sea Level Pressure 30.54 in    
Wind  
Wind Speed 11 mph (SSW)    
Max Wind Speed 18 mph    
Max Gust Speed 32 mph    
Visibility 10 miles    
Events Rain , Thunderstorm    
T = Trace of Precipitation, MM = Missing Value Source: NWS Daily Summary

Daily Weather History Graph

Daily Weather History Graph

Search for Another Location

Airport or City:

Astronomy

Aug. 22, 2019 Rise Set
Actual Time 6:23 AM MDT 7:50 PM MDT
Civil Twilight 5:55 AM MDT 8:18 PM MDT
Nautical Twilight 5:21 AM MDT 8:52 PM MDT
Astronomical Twilight 4:45 AM MDT 9:28 PM MDT
Moon 11:44 PM MDT (8/22) 12:59 PM MDT (8/22)
Length of Visible Light 14h 23m
Length of Day
13h 27m
Waning Gibbous, 59% of the Moon is Illuminated
Aug 22
Waning Gibbous
Aug 23
Last Quarter
Aug 30
New
Sep 5
First Quarter
Sep 13
Full

Hourly Weather History & Observations

Time (MDT) Temp. Dew Point Humidity Pressure Visibility Wind Dir Wind Speed Gust Speed Precip Events Conditions
12:12 AM 51.8 °F 33.8 °F 50% 30.62 in 10.0 mi WSW 6.9 mph 10.4 mph N/A   Scattered Clouds
12:30 AM 53.6 °F 33.8 °F 47% 30.61 in 10.0 mi North - - N/A   Scattered Clouds
12:54 AM 48.2 °F 35.6 °F 62% 30.62 in 10.0 mi West 15.0 mph - N/A   Mostly Cloudy
1:12 AM 51.8 °F 33.8 °F 50% 30.60 in 10.0 mi Calm Calm - N/A   Overcast
1:29 AM 50.0 °F 33.8 °F 54% 30.59 in 10.0 mi ESE 5.8 mph - N/A   Overcast
1:53 AM 53.6 °F 30.2 °F 41% 30.57 in 10.0 mi SE 13.8 mph - N/A   Mostly Cloudy
2:12 AM 53.6 °F 30.2 °F 41% 30.56 in 10.0 mi SE 10.4 mph - N/A   Mostly Cloudy
2:30 AM 53.6 °F 30.2 °F 41% 30.56 in 10.0 mi South 13.8 mph 17.3 mph N/A   Scattered Clouds
2:54 AM 53.6 °F 30.2 °F 41% 30.55 in 10.0 mi South 11.5 mph 23.0 mph N/A   Clear
3:12 AM 53.6 °F 32.0 °F 44% 30.54 in 10.0 mi South 13.8 mph 24.2 mph N/A   Clear
3:30 AM 53.6 °F 30.2 °F 41% 30.53 in 10.0 mi SSE 13.8 mph 26.5 mph N/A   Clear
3:54 AM 53.6 °F 32.0 °F 44% 30.53 in 10.0 mi South 18.4 mph 25.3 mph N/A   Clear
4:12 AM 53.6 °F 30.2 °F 41% 30.53 in 10.0 mi South 18.4 mph 27.6 mph N/A   Clear
4:30 AM 53.6 °F 30.2 °F 41% 30.53 in 10.0 mi South 16.1 mph 25.3 mph N/A   Clear
4:54 AM 53.6 °F 32.0 °F 44% 30.53 in 10.0 mi South 15.0 mph 26.5 mph N/A   Clear
5:30 AM 53.6 °F 30.2 °F 41% 30.53 in 10.0 mi South 13.8 mph 26.5 mph N/A   Clear
5:54 AM 53.6 °F 32.0 °F 44% 30.53 in 10.0 mi South 17.3 mph 25.3 mph N/A   Clear
6:12 AM 51.8 °F 30.2 °F 44% 30.53 in 10.0 mi SSE 8.1 mph 20.7 mph N/A   Clear
6:29 AM 53.6 °F 30.2 °F 41% 30.54 in 10.0 mi SSW 9.2 mph - N/A   Clear
6:53 AM 51.8 °F 32.0 °F 47% 30.54 in 10.0 mi South 15.0 mph - N/A   Clear
7:12 AM 53.6 °F 30.2 °F 41% 30.54 in 10.0 mi SW 8.1 mph 17.3 mph N/A   Clear
7:30 AM 53.6 °F 28.4 °F 38% 30.54 in 10.0 mi North - - N/A   Clear
7:54 AM 55.4 °F 32.0 °F 41% 30.54 in 10.0 mi South 3.5 mph - N/A   Clear
8:12 AM 55.4 °F 32.0 °F 41% 30.54 in 10.0 mi SSE 4.6 mph - N/A   Clear
8:29 AM 59.0 °F 32.0 °F 36% 30.54 in 10.0 mi South 5.8 mph - N/A   Clear
8:52 AM 59.0 °F 32.0 °F 36% 30.55 in 10.0 mi South 6.9 mph - N/A   Clear
9:12 AM 59.0 °F 30.2 °F 34% 30.55 in 10.0 mi Calm Calm - N/A   Clear
9:30 AM 59.0 °F 32.0 °F 36% 30.55 in 10.0 mi WNW 3.5 mph - N/A   Clear
9:54 AM 60.8 °F 30.2 °F 31% 30.56 in 10.0 mi NW 5.8 mph - N/A   Clear
10:12 AM 60.8 °F 32.0 °F 34% 30.56 in 10.0 mi North - - N/A   Clear
10:30 AM 60.8 °F 30.2 °F 31% 30.55 in 10.0 mi WSW 10.4 mph 18.4 mph N/A   Clear
10:54 AM 60.8 °F 30.2 °F 31% 30.55 in 10.0 mi WSW 15.0 mph 20.7 mph N/A   Clear
11:12 AM 60.8 °F 28.4 °F 29% 30.55 in 10.0 mi WSW 15.0 mph 21.9 mph N/A   Scattered Clouds
11:30 AM 64.4 °F 30.2 °F 28% 30.55 in 10.0 mi WSW 11.5 mph 18.4 mph N/A   Clear
11:54 AM 64.4 °F 26.6 °F 24% 30.53 in 10.0 mi WSW 18.4 mph 25.3 mph N/A   Scattered Clouds
12:11 PM 60.8 °F 24.8 °F 25% 30.53 in 10.0 mi West 13.8 mph 19.6 mph N/A   Scattered Clouds
12:29 PM 60.8 °F 24.8 °F 25% 30.53 in 10.0 mi WNW 15.0 mph 27.6 mph N/A   Scattered Clouds
12:52 PM 59.0 °F 23.0 °F 25% 30.54 in 10.0 mi NNW 8.1 mph 31.1 mph N/A Thunderstorm Overcast
1:12 PM 59.0 °F 26.6 °F 29% 30.54 in 10.0 mi North - - N/A Thunderstorm Overcast
1:30 PM 53.6 °F 33.8 °F 47% 30.55 in 10.0 mi SSE 21.9 mph 31.1 mph N/A Rain Light Rain
1:54 PM 53.6 °F 33.8 °F 47% 30.55 in 10.0 mi SE 18.4 mph 32.2 mph N/A   Overcast
2:12 PM 57.2 °F 32.0 °F 38% 30.53 in 10.0 mi SE 17.3 mph 25.3 mph N/A   Overcast
2:54 PM 60.8 °F 30.2 °F 31% 30.52 in 10.0 mi SE 17.3 mph 23.0 mph N/A   Scattered Clouds
3:12 PM 64.4 °F 30.2 °F 28% 30.51 in 10.0 mi SE 15.0 mph 23.0 mph N/A   Scattered Clouds
3:30 PM 60.8 °F 24.8 °F 25% 30.51 in 10.0 mi West 12.7 mph 21.9 mph N/A   Scattered Clouds
3:53 PM 60.8 °F 28.4 °F 29% 30.50 in 10.0 mi West 12.7 mph 20.7 mph N/A   Scattered Clouds
4:12 PM 59.0 °F 28.4 °F 31% 30.50 in 10.0 mi North - - N/A   Overcast
4:29 PM 60.8 °F 30.2 °F 31% 30.50 in 10.0 mi WNW 16.1 mph 28.8 mph N/A   Scattered Clouds
4:54 PM 60.8 °F 26.6 °F 27% 30.51 in 10.0 mi West 15.0 mph 25.3 mph N/A   Scattered Clouds
5:12 PM 60.8 °F 26.6 °F 27% 30.50 in 10.0 mi West 12.7 mph 25.3 mph N/A   Scattered Clouds
5:30 PM 59.0 °F 26.6 °F 29% 30.50 in 10.0 mi WNW 10.4 mph 24.2 mph N/A   Clear
5:54 PM 59.0 °F 26.6 °F 29% 30.51 in 10.0 mi West 12.7 mph 24.2 mph N/A   Scattered Clouds
6:09 PM 59.0 °F 30.2 °F 34% 30.51 in 10.0 mi West 10.4 mph 19.6 mph N/A   Scattered Clouds
6:33 PM 57.2 °F 28.4 °F 33% 30.51 in 10.0 mi North - - N/A   Mostly Cloudy
6:51 PM 55.4 °F 28.4 °F 36% 30.52 in 10.0 mi NNW 8.1 mph - N/A   Overcast
7:12 PM 53.6 °F 28.4 °F 38% 30.52 in 10.0 mi WNW 15.0 mph - N/A   Scattered Clouds
7:31 PM 53.6 °F 30.2 °F 41% 30.53 in 10.0 mi SSW 10.4 mph 20.7 mph N/A   Scattered Clouds
7:49 PM 53.6 °F 32.0 °F 44% 30.53 in 10.0 mi SSW 16.1 mph 24.2 mph N/A   Mostly Cloudy
8:12 PM 53.6 °F 32.0 °F 44% 30.53 in 10.0 mi South 16.1 mph 26.5 mph N/A   Overcast
8:30 PM 53.6 °F 33.8 °F 47% 30.52 in 10.0 mi SSE 16.1 mph 23.0 mph N/A   Mostly Cloudy
8:53 PM 53.6 °F 32.0 °F 44% 30.53 in 10.0 mi South 17.3 mph 25.3 mph N/A   Mostly Cloudy
9:12 PM 53.6 °F 32.0 °F 44% 30.53 in 10.0 mi South 16.1 mph 23.0 mph N/A   Overcast
9:30 PM 53.6 °F 30.2 °F 41% 30.53 in 10.0 mi South 15.0 mph 26.5 mph N/A   Overcast
9:48 PM 53.6 °F 26.6 °F 35% 30.53 in 10.0 mi South 13.8 mph 26.5 mph N/A   Overcast
10:12 PM 53.6 °F 24.8 °F 33% 30.53 in 10.0 mi SSE 13.8 mph 18.4 mph N/A   Mostly Cloudy
10:30 PM 53.6 °F 23.0 °F 30% 30.52 in 10.0 mi South 12.7 mph 19.6 mph N/A   Overcast
10:54 PM 53.6 °F 23.0 °F 30% 30.52 in 10.0 mi South 11.5 mph 26.5 mph N/A   Scattered Clouds
11:12 PM 53.6 °F 23.0 °F 30% 30.52 in 10.0 mi South 11.5 mph 18.4 mph N/A   Clear
11:29 PM 53.6 °F 23.0 °F 30% 30.52 in 10.0 mi South 10.4 mph 19.6 mph N/A   Clear
11:52 PM 53.6 °F 23.0 °F 30% 30.53 in 10.0 mi South 13.8 mph 19.6 mph N/A   Scattered Clouds